GW2328 Weather Reports


Display with metric or nautical units.
time (UTC)temp
F
wind
direction
speed
MPH
gust
MPH
rain 1hr
in
rain 24hr
in
rain mn
in
humidity
%
barometer
mb
20260903042621 76 151 0.0 0.0 0.00 0.00 0.00 94 1020.5
20260903042116 76 151 0.0 0.0 0.00 0.00 0.00 93 1020.6
20260903041613 76 151 0.0 0.0 0.00 0.00 0.00 93 1020.3
20260903041108 76 151 0.0 0.0 0.00 0.00 0.00 93 1020.5
20260903040607 76 151 0.0 0.0 0.00 0.00 0.00 93 1020.3
20260903040104 77 151 0.0 0.0 0.00 0.00 0.00 93 1020.4
20260903035559 77 151 0.0 0.0 0.00 0.00 0.00 93 1020.6
20260903035054 77 151 0.0 0.0 0.00 0.00 0.00 92 1020.6
20260903034549 77 151 0.0 0.0 0.00 0.00 0.00 92 1020.5
20260903034044 77 151 0.0 0.0 0.00 0.00 0.00 92 1020.4
20260903033539 77 151 0.0 0.0 0.00 0.00 0.00 92 1020.4
20260903033034 77 151 0.0 0.0 0.00 0.00 0.00 91 1020.4
20260903032529 77 151 0.0 0.0 0.00 0.00 0.00 91 1020.6
20260903032025 77 151 0.0 0.0 0.00 0.00 0.00 91 1020.3
20260903031524 77 151 0.0 0.0 0.00 0.00 0.00 90 1020.6
20260903031020 78 151 0.0 0.0 0.00 0.00 0.00 90 1020.3
20260903030515 78 151 0.0 0.0 0.00 0.00 0.00 90 1020.6
20260903030011 78 151 0.0 0.0 0.00 0.00 0.00 89 1020.4
20260903025507 78 153 0.0 0.0 0.00 0.00 0.00 89 1020.3
20260903025002 78 153 0.0 0.0 0.00 0.00 0.00 89 1020.4
20260903024501 78 153 0.0 0.0 0.00 0.00 0.00 88 1020.5
20260903023955 78 153 0.0 0.0 0.00 0.00 0.00 88 1020.4
20260903023452 78 153 0.0 0.0 0.00 0.00 0.00 87 1020.4
20260903022947 79 153 0.0 0.0 0.00 0.00 0.00 87 1020.4
20260903022446 79 153 0.0 0.0 0.00 0.00 0.00 87 1020.5
20260903021944 79 153 0.0 0.0 0.00 0.00 0.00 86 1020.5
20260903021440 79 153 0.0 0.0 0.00 0.00 0.00 86 1020.4
20260903020935 80 153 0.0 0.0 0.00 0.00 0.00 85 1020.6
20260903020430 80 153 0.0 0.0 0.00 0.00 0.00 85 1020.4
20260903015925 80 153 0.0 0.0 0.00 0.00 0.00 84 1020.4
20260903015420 80 153 0.0 0.0 0.00 0.00 0.00 84 1020.4
20260903014915 80 153 0.0 0.0 0.00 0.00 0.00 83 1020.4
20260903014409 81 153 0.0 0.0 0.00 0.00 0.00 82 1020.4
20260903013905 81 153 0.0 0.0 0.00 0.00 0.00 82 1020.3
20260903013404 81 153 0.0 0.0 0.00 0.00 0.00 81 1020.3
20260903012903 81 153 0.0 0.0 0.00 0.00 0.00 80 1020.0
20260903012403 82 153 0.0 0.0 0.00 0.00 0.00 80 1020.3
20260903011901 82 153 0.0 0.0 0.00 0.00 0.00 79 1020.0
20260903011356 82 153 0.0 0.0 0.00 0.00 0.00 78 1020.3
20260903010851 82 153 0.0 0.0 0.00 0.00 0.00 77 1020.2
20260903010347 83 154 0.0 0.0 0.00 0.00 0.00 77 1020.0
20260903005845 83 154 0.0 0.0 0.00 0.00 0.00 76 1020.1
20260903005340 84 154 0.0 0.0 0.00 0.00 0.00 75 1020.2
20260903004837 84 154 0.0 0.0 0.00 0.00 0.00 73 1019.9
20260903004332 84 154 0.0 0.0 0.00 0.00 0.00 72 1020.1
20260903003827 85 154 0.0 0.0 0.00 0.00 0.00 71 1020.0
20260903003322 85 154 0.0 0.0 0.00 0.00 0.00 71 1019.8
20260903002821 86 154 0.0 0.0 0.00 0.00 0.00 70 1020.0
20260903002322 86 154 0.0 0.0 0.00 0.00 0.00 68 1020.2
20260903001816 87 154 0.0 0.0 0.00 0.00 0.00 67 1020.0
20260903001312 87 154 0.0 0.0 0.00 0.00 0.00 67 1020.0
20260903000812 88 154 0.0 0.0 0.00 0.00 0.00 66 1020.3
20260903000307 88 154 0.0 0.0 0.00 0.00 0.00 64 1020.0
20260902235804 89 154 0.0 0.0 0.00 0.00 0.00 63 1020.2
20260902235300 89 154 0.0 0.0 0.00 0.00 0.00 63 1020.2
20260902234754 90 154 0.0 0.0 0.00 0.00 0.00 61 1019.9
20260902234253 90 154 0.0 0.0 0.00 0.00 0.00 61 1020.1
20260902233747 91 154 0.0 0.0 0.00 0.00 0.00 60 1019.9
20260902233242 91 154 0.0 0.0 0.00 0.00 0.00 59 1020.0
20260902232740 91 153 0.0 0.0 0.00 0.00 0.00 59 1020.1
20260902232235 92 153 0.0 0.0 0.00 0.00 0.00 58 1020.0
20260902231734 92 155 0.0 0.0 0.00 0.00 0.00 58 1020.1
20260902231230 92 155 0.0 0.0 0.00 0.00 0.00 57 1020.1
20260902230725 93 154 0.0 0.0 0.00 0.00 0.00 57 1020.1
20260902230223 93 149 0.0 0.0 0.00 0.00 0.00 57 1020.1
20260902225719 93 153 0.0 0.0 0.00 0.00 0.00 56 1020.1
20260902225218 94 154 0.0 0.0 0.00 0.00 0.00 55 1020.2
20260902224717 94 157 1.0 1.0 0.00 0.00 0.00 54 1020.2
20260902224212 94 167 0.0 1.0 0.00 0.00 0.00 53 1020.0
20260902223708 94 165 0.0 0.0 0.00 0.00 0.00 53 1020.3
20260902223208 95 157 0.0 0.0 0.00 0.00 0.00 53 1020.1
20260902222707 95 157 0.0 1.0 0.00 0.00 0.00 52 1020.4
20260902222206 96 228 1.0 5.0 0.00 0.00 0.00 51 1020.3
20260902221701 96 156 1.0 2.0 0.00 0.00 0.00 50 1020.3
20260902221155 97 223 1.0 2.0 0.00 0.00 0.00 49 1020.2
20260902220650 98 151 0.0 1.0 0.00 0.00 0.00 49 1020.4
20260902220145 99 183 1.0 5.0 0.00 0.00 0.00 47 1020.3
20260902215641 99 176 0.0 3.0 0.00 0.00 0.00 47 1020.2
20260902215136 100 157 0.0 0.0 0.00 0.00 0.00 47 1020.3
20260902214631 100 144 0.0 1.0 0.00 0.00 0.00 47 1020.4
20260902214130 100 171 1.0 2.0 0.00 0.00 0.00 46 1020.2
20260902213626 100 158 0.0 2.0 0.00 0.00 0.00 47 1020.3
20260902213125 100 153 0.0 2.0 0.00 0.00 0.00 46 1020.3
20260902212621 99 160 2.0 3.0 0.00 0.00 0.00 47 1020.3
20260902212117 99 108 1.0 2.0 0.00 0.00 0.00 47 1020.4
20260902211613 99 165 2.0 3.0 0.00 0.00 0.00 47 1020.4
20260902211108 100 183 0.0 1.0 0.00 0.00 0.00 47 1020.3
20260902210607 100 158 2.0 2.0 0.00 0.00 0.00 48 1020.4
20260902205601 99 190 0.0 2.0 0.00 0.00 0.00 49 1020.4
20260902205056 99 145 0.0 3.0 0.00 0.00 0.00 48 1020.5
20260902204551 98 167 1.0 1.0 0.00 0.00 0.00 48 1020.4
20260902204046 100 148 0.0 1.0 0.00 0.00 0.00 46 1020.6
20260902203541 100 154 0.0 5.0 0.00 0.00 0.00 47 1020.6
20260902203040 99 174 1.0 1.0 0.00 0.00 0.00 48 1020.8
20260902202536 100 139 1.0 3.0 0.00 0.00 0.00 47 1020.7
20260902202032 99 170 2.0 2.0 0.00 0.00 0.00 47 1020.8
20260902201528 99 201 1.0 2.0 0.00 0.00 0.00 47 1021.0
20260902201027 100 221 3.0 5.0 0.00 0.00 0.00 47 1021.0
20260902200522 100 152 0.0 2.0 0.00 0.00 0.00 46 1021.0
20260902200019 100 162 1.0 2.0 0.00 0.00 0.00 47 1020.8
20260902195514 99 246 3.0 3.0 0.00 0.00 0.00 47 1020.9
20260902195013 99 193 1.0 6.0 0.00 0.00 0.00 48 1020.9
20260902194513 98 197 0.0 3.0 0.00 0.00 0.00 49 1021.1
20260902194008 97 113 2.0 3.0 0.00 0.00 0.00 50 1021.2
20260902193504 96 140 1.0 7.0 0.00 0.00 0.00 49 1021.2
20260902193003 98 144 0.0 0.0 0.00 0.00 0.00 49 1021.3
20260902192502 99 144 0.0 2.0 0.00 0.00 0.00 48 1021.4
20260902192001 100 211 2.0 3.0 0.00 0.00 0.00 47 1021.2
20260902191456 100 148 0.0 1.0 0.00 0.00 0.00 49 1021.4
20260902190951 99 158 0.0 1.0 0.00 0.00 0.00 48 1021.4
20260902190446 100 218 2.0 2.0 0.00 0.00 0.00 49 1021.4
20260902185942 99 149 0.0 3.0 0.00 0.00 0.00 49 1021.5
20260902185438 100 136 2.0 5.0 0.00 0.00 0.00 49 1021.7
20260902184933 99 174 1.0 2.0 0.00 0.00 0.00 50 1021.5
20260902184428 99 128 0.0 2.0 0.00 0.00 0.00 50 1021.7
20260902183924 98 151 0.0 2.0 0.00 0.00 0.00 50 1021.9
20260902183420 98 148 1.0 3.0 0.00 0.00 0.00 49 1021.6
20260902182915 99 154 1.0 2.0 0.00 0.00 0.00 49 1021.7
20260902182411 99 152 2.0 3.0 0.00 0.00 0.00 51 1021.9
20260902181908 98 156 0.0 1.0 0.00 0.00 0.00 50 1022.0
20260902181403 97 219 2.0 3.0 0.00 0.00 0.00 51 1021.9
20260902180857 97 157 1.0 3.0 0.00 0.00 0.00 51 1021.9
20260902180352 97 152 2.0 5.0 0.00 0.00 0.00 53 1021.9
20260902175848 97 169 1.0 2.0 0.00 0.00 0.00 52 1021.9
20260902175343 96 128 1.0 1.0 0.00 0.00 0.00 53 1022.0
20260902174838 96 134 1.0 1.0 0.00 0.00 0.00 55 1022.3
20260902174335 95 158 0.0 2.0 0.00 0.00 0.00 54 1022.2
20260902173825 96 148 1.0 2.0 0.00 0.00 0.00 53 1022.2
20260902173325 96 145 0.0 3.0 0.00 0.00 0.00 53 1022.3
20260902172824 96 147 1.0 2.0 0.00 0.00 0.00 54 1022.4
20260902172319 96 154 1.0 2.0 0.00 0.00 0.00 54 1022.2
20260902171814 96 200 2.0 3.0 0.00 0.00 0.00 55 1022.3
20260902171309 96 143 1.0 2.0 0.00 0.00 0.00 55 1022.5
20260902170806 96 144 1.0 1.0 0.00 0.00 0.00 54 1022.5
20260902170300 96 135 2.0 3.0 0.00 0.00 0.00 55 1022.4
20260902165756 96 143 1.0 2.0 0.00 0.00 0.00 54 1022.5
20260902165250 96 141 0.0 3.0 0.00 0.00 0.00 55 1022.6
20260902164744 96 133 1.0 2.0 0.00 0.00 0.00 55 1022.8
20260902164238 96 126 0.0 1.0 0.00 0.00 0.00 56 1022.7
20260902163733 95 140 0.0 2.0 0.00 0.00 0.00 56 1022.5
20260902163228 95 145 1.0 2.0 0.00 0.00 0.00 55 1022.7
20260902162726 96 150 0.0 3.0 0.00 0.00 0.00 55 1022.8
20260902162221 96 191 1.0 2.0 0.00 0.00 0.00 57 1022.9
20260902161716 95 154 0.0 1.0 0.00 0.00 0.00 58 1022.8
20260902161212 94 157 1.0 2.0 0.00 0.00 0.00 59 1023.1
20260902160708 94 128 1.0 2.0 0.00 0.00 0.00 60 1022.8
20260902160203 94 144 0.0 2.0 0.00 0.00 0.00 60 1022.9
20260902155701 94 188 1.0 1.0 0.00 0.00 0.00 61 1022.9
20260902155159 95 134 0.0 2.0 0.00 0.00 0.00 61 1023.1
20260902154655 94 137 0.0 3.0 0.00 0.00 0.00 62 1023.0
20260902154154 94 106 0.0 2.0 0.00 0.00 0.00 63 1023.0
20260902153649 94 154 0.0 1.0 0.00 0.00 0.00 64 1023.1
20260902153144 93 145 0.0 0.0 0.00 0.00 0.00 66 1023.0
20260902152640 93 143 0.0 1.0 0.00 0.00 0.00 68 1023.3
20260902152135 93 141 0.0 1.0 0.00 0.00 0.00 69 1023.0
20260902151630 92 155 0.0 1.0 0.00 0.00 0.00 70 1023.1
20260902151125 91 131 0.0 1.0 0.00 0.00 0.00 72 1023.1
20260902150621 91 153 0.0 1.0 0.00 0.00 0.00 74 1023.1
20260902150115 91 145 0.0 0.0 0.00 0.00 0.00 77 1023.1
20260902145610 89 145 0.0 0.0 0.00 0.00 0.00 79 1023.5
20260902145109 89 154 1.0 2.0 0.00 0.00 0.00 81 1023.3
20260902144607 88 155 0.0 1.0 0.00 0.00 0.00 83 1023.4
20260902144107 87 153 0.0 1.0 0.00 0.00 0.00 85 1023.0
20260902143602 87 159 1.0 2.0 0.00 0.00 0.00 88 1023.0
20260902143057 86 155 0.0 1.0 0.00 0.00 0.00 91 1022.9
20260902142552 85 139 0.0 0.0 0.00 0.00 0.00 93 1023.3
20260902142048 84 142 0.0 0.0 0.00 0.00 0.00 95 1023.1
20260902141542 82 152 0.0 0.0 0.00 0.00 0.00 96 1023.4
20260902141037 81 153 0.0 0.0 0.00 0.00 0.00 97 1023.5
20260902140532 81 148 0.0 0.0 0.00 0.00 0.00 98 1023.4
20260902140027 80 149 0.0 0.0 0.00 0.00 0.00 98 1023.4
20260902135526 79 154 0.0 0.0 0.00 0.00 0.00 99 1023.5
20260902135022 78 150 0.0 0.0 0.00 0.00 0.00 99 1023.5
20260902134518 78 151 0.0 0.0 0.00 0.00 0.00 99 1023.3
20260902134018 77 153 0.0 0.0 0.00 0.00 0.00 99 1023.5
20260902133512 77 149 0.0 0.0 0.00 0.00 0.00 99 1023.4
20260902133012 76 149 0.0 0.0 0.00 0.00 0.00 99 1023.5
20260902132508 75 149 0.0 0.0 0.00 0.00 0.00 99 1023.4
20260902132003 75 149 0.0 0.0 0.00 0.00 0.00 99 1023.4
20260902131459 75 149 0.0 0.0 0.00 0.00 0.00 99 1023.5
20260902130958 74 149 0.0 0.0 0.00 0.00 0.00 99 1023.5
20260902130454 74 149 0.0 0.0 0.00 0.00 0.00 99 1023.3
20260902125949 73 149 0.0 0.0 0.00 0.00 0.00 99 1023.5
20260902125446 73 149 0.0 0.0 0.00 0.00 0.00 99 1023.5
20260902124941 72 149 0.0 0.0 0.00 0.00 0.00 99 1023.6
20260902124437 72 149 0.0 0.0 0.00 0.00 0.00 99 1023.5
20260902123932 71 149 0.0 0.0 0.00 0.00 0.00 99 1023.6
20260902123428 71 149 0.0 0.0 0.00 0.00 0.00 99 1023.5
20260902122926 71 149 0.0 0.0 0.00 0.00 0.00 99 1023.3
20260902122423 71 149 0.0 0.0 0.00 0.00 0.00 99 1023.4
20260902121918 71 149 0.0 0.0 0.00 0.00 0.00 99 1023.3
20260902121413 70 149 0.0 0.0 0.00 0.00 0.00 99 1023.3
20260902120908 70 149 0.0 0.0 0.00 0.00 0.00 99 1023.0
20260902120404 70 149 0.0 0.0 0.00 0.00 0.00 99 1022.9
20260902115903 70 149 0.0 0.0 0.00 0.00 0.00 99 1022.9
20260902115400 70 149 0.0 0.0 0.00 0.00 0.00 99 1022.8
20260902114856 70 149 0.0 0.0 0.00 0.00 0.00 99 1022.8
20260902114351 70 149 0.0 0.0 0.00 0.00 0.00 99 1022.7
20260902113846 70 149 0.0 0.0 0.00 0.00 0.00 99 1022.6
20260902113342 70 149 0.0 0.0 0.00 0.00 0.00 99 1022.6
20260902112841 70 149 0.0 0.0 0.00 0.00 0.00 99 1022.6
20260902112337 70 149 0.0 0.0 0.00 0.00 0.00 99 1022.8
20260902111833 70 149 0.0 0.0 0.00 0.00 0.00 99 1022.6
20260902111329 70 149 0.0 0.0 0.00 0.00 0.00 99 1022.5
20260902110824 70 149 0.0 0.0 0.00 0.00 0.00 99 1022.6
20260902110320 70 149 0.0 0.0 0.00 0.00 0.00 99 1022.3
20260902105820 70 149 0.0 0.0 0.00 0.00 0.00 99 1022.6
20260902105315 70 149 0.0 0.0 0.00 0.00 0.00 99 1022.4
20260902104810 70 149 0.0 0.0 0.00 0.00 0.00 99 1022.4
20260902104307 70 149 0.0 0.0 0.00 0.00 0.00 99 1022.5
20260902103806 70 149 0.0 0.0 0.00 0.00 0.00 99 1022.5
20260902103301 70 149 0.0 0.0 0.00 0.00 0.00 99 1022.2
20260902102756 70 149 0.0 0.0 0.00 0.00 0.00 99 1022.5
20260902102254 70 149 0.0 0.0 0.00 0.00 0.00 99 1022.2
20260902101749 70 149 0.0 0.0 0.00 0.00 0.00 99 1022.3
20260902101244 70 149 0.0 0.0 0.00 0.00 0.00 99 1022.4
20260902100743 70 149 0.0 0.0 0.00 0.00 0.00 99 1022.3
20260902100237 70 149 0.0 0.0 0.00 0.00 0.00 99 1022.4
20260902095732 70 149 0.0 0.0 0.00 0.00 0.00 99 1022.2
20260902095226 70 149 0.0 0.0 0.00 0.00 0.00 99 1022.2
20260902094721 70 149 0.0 0.0 0.00 0.00 0.00 99 1022.2
20260902094218 70 149 0.0 0.0 0.00 0.00 0.00 99 1022.0
20260902093716 70 149 0.0 0.0 0.00 0.00 0.00 99 1021.9
20260902093212 70 149 0.0 0.0 0.00 0.00 0.00 99 1021.9
20260902092712 70 149 0.0 0.0 0.00 0.00 0.00 99 1021.8
20260902092207 71 149 0.0 0.0 0.00 0.00 0.00 99 1021.7
20260902091701 71 149 0.0 0.0 0.00 0.00 0.00 99 1021.8
20260902091158 71 149 0.0 0.0 0.00 0.00 0.00 99 1021.7
20260902090654 71 149 0.0 0.0 0.00 0.00 0.00 99 1021.6
20260902090152 71 149 0.0 0.0 0.00 0.00 0.00 99 1021.6
20260902085647 71 149 0.0 0.0 0.00 0.00 0.00 98 1021.8
20260902085142 71 149 0.0 0.0 0.00 0.00 0.00 98 1021.9
20260902084638 71 149 0.0 0.0 0.00 0.00 0.00 98 1021.8
20260902084134 71 150 0.0 0.0 0.00 0.00 0.00 98 1021.5
20260902083629 71 150 0.0 0.0 0.00 0.00 0.00 98 1021.7
20260902083128 71 150 0.0 0.0 0.00 0.00 0.00 98 1021.7
20260902082624 71 150 0.0 0.0 0.00 0.00 0.00 98 1021.7
20260902082120 71 150 0.0 0.0 0.00 0.00 0.00 98 1021.7
20260902081617 71 150 0.0 0.0 0.00 0.00 0.00 98 1021.7
20260902081116 71 150 0.0 0.0 0.00 0.00 0.00 98 1021.7
20260902080612 71 150 0.0 0.0 0.00 0.00 0.00 98 1021.7
20260902080108 71 150 0.0 0.0 0.00 0.00 0.00 98 1021.6
20260902075607 71 150 0.0 0.0 0.00 0.00 0.00 98 1021.8
20260902075104 71 150 0.0 0.0 0.00 0.00 0.00 98 1021.6
20260902074559 71 150 0.0 0.0 0.00 0.00 0.00 98 1021.5
20260902074054 71 150 0.0 0.0 0.00 0.00 0.00 98 1021.4
20260902073549 71 150 0.0 0.0 0.00 0.00 0.00 98 1021.5
20260902073046 71 150 0.0 0.0 0.00 0.00 0.00 98 1021.5
20260902072541 71 150 0.0 0.0 0.00 0.00 0.00 98 1021.4
20260902072038 71 150 0.0 0.0 0.00 0.00 0.00 98 1021.4
20260902071537 72 150 0.0 0.0 0.00 0.00 0.00 98 1021.5
20260902071033 72 150 0.0 0.0 0.00 0.00 0.00 98 1021.6
20260902070529 72 150 0.0 0.0 0.00 0.00 0.00 97 1021.5
20260902070023 72 150 0.0 0.0 0.00 0.00 0.00 97 1021.4
20260902065517 72 150 0.0 0.0 0.00 0.00 0.00 97 1021.4
20260902065013 72 150 0.0 0.0 0.00 0.00 0.00 97 1021.6
20260902064509 72 150 0.0 0.0 0.00 0.00 0.00 97 1021.4
20260902064004 72 150 0.0 0.0 0.00 0.00 0.00 97 1021.6
20260902063503 72 150 0.0 0.0 0.00 0.00 0.00 97 1021.7
20260902062959 72 150 0.0 0.0 0.00 0.00 0.00 97 1021.6
20260902062457 72 150 0.0 0.0 0.00 0.00 0.00 97 1021.5
20260902061953 73 150 0.0 0.0 0.00 0.00 0.00 97 1021.5
20260902061448 73 150 0.0 0.0 0.00 0.00 0.00 97 1021.6
20260902060944 73 150 0.0 0.0 0.00 0.00 0.00 97 1021.7
20260902060440 73 150 0.0 0.0 0.00 0.00 0.00 97 1021.6
20260902055935 73 150 0.0 0.0 0.00 0.00 0.00 97 1021.6
20260902055431 73 150 0.0 0.0 0.00 0.00 0.00 96 1021.7
20260902054926 73 150 0.0 0.0 0.00 0.00 0.00 96 1021.6
20260902054421 73 150 0.0 0.0 0.00 0.00 0.00 96 1021.5
20260902053917 73 150 0.0 0.0 0.00 0.00 0.00 96 1021.6
20260902053412 73 150 0.0 0.0 0.00 0.00 0.00 96 1021.7
20260902052911 73 150 0.0 0.0 0.00 0.00 0.00 96 1021.5
20260902052406 73 150 0.0 0.0 0.00 0.00 0.00 96 1021.5
20260902051902 73 150 0.0 0.0 0.00 0.00 0.00 96 1021.5
20260902051356 73 150 0.0 0.0 0.00 0.00 0.00 96 1021.5
20260902050855 73 150 0.0 0.0 0.00 0.00 0.00 96 1021.4
20260902050355 73 150 0.0 0.0 0.00 0.00 0.00 95 1021.4
20260902045850 74 150 0.0 0.0 0.00 0.00 0.00 95 1021.5
20260902045346 74 150 0.0 0.0 0.00 0.00 0.00 95 1021.5
20260902044842 74 150 0.0 0.0 0.00 0.00 0.00 95 1021.5
20260902044337 74 150 0.0 0.0 0.00 0.00 0.00 95 1021.4
20260902043837 74 150 0.0 0.0 0.00 0.00 0.00 95 1021.4
20260902043333 74 150 0.0 0.0 0.00 0.00 0.00 95 1021.7
20260902042832 74 150 0.0 0.0 0.00 0.00 0.00 95 1021.6